Time,TemperatureF,DewpointF,PressureIn,WindDirection,WindDirectionDegrees,WindSpeedMPH,WindSpeedGustMPH,Humidity,HourlyPrecipIn,Conditions,Clouds,dailyrainin,SoftwareType,DateUTC
2013-05-20 00:01:00,63.8,63.3,30.12,ESE,117,0.0,0.0,98,0.00,,CLR,0.00,VWS V14.00,2013-05-20 04:01:00,
2013-05-20 00:06:00,63.8,63.3,30.12,ESE,117,0.0,0.0,98,0.00,,CLR,0.00,VWS V14.00,2013-05-20 04:06:00,
2013-05-20 00:11:00,63.8,63.3,30.12,ESE,117,0.0,0.0,98,0.00,,CLR,0.00,VWS V14.00,2013-05-20 04:11:00,
2013-05-20 00:17:00,63.8,63.3,30.12,ESE,117,0.0,0.0,98,0.00,,CLR,0.00,VWS V14.00,2013-05-20 04:17:00,
2013-05-20 00:22:00,63.7,63.1,30.12,ESE,117,0.0,0.0,98,0.00,,CLR,0.00,VWS V14.00,2013-05-20 04:22:00,
2013-05-20 00:27:00,63.7,63.1,30.12,ESE,117,0.0,0.0,98,0.00,,CLR,0.00,VWS V14.00,2013-05-20 04:27:00,
2013-05-20 00:32:00,63.7,63.1,30.12,ESE,117,0.0,0.0,98,0.00,,CLR,0.00,VWS V14.00,2013-05-20 04:32:00,
2013-05-20 00:37:00,63.7,63.1,30.12,ESE,117,0.0,0.0,98,0.00,,CLR,0.00,VWS V14.00,2013-05-20 04:37:00,
2013-05-20 00:42:00,63.7,63.1,30.12,ESE,117,0.0,0.0,98,0.00,,CLR,0.00,VWS V14.00,2013-05-20 04:42:00,
2013-05-20 00:47:00,63.7,63.1,30.12,ESE,117,0.0,0.0,98,0.00,,CLR,0.00,VWS V14.00,2013-05-20 04:47:00,
2013-05-20 00:52:00,63.7,63.1,30.12,ESE,117,0.0,0.0,98,0.00,,CLR,0.00,VWS V14.00,2013-05-20 04:52:00,
2013-05-20 00:57:00,63.7,63.1,30.12,ESE,117,0.0,0.0,98,0.00,,CLR,0.00,VWS V14.00,2013-05-20 04:57:00,
2013-05-20 01:02:00,63.7,63.1,30.12,ESE,117,0.0,0.0,98,0.00,,BKN100,0.00,VWS V14.00,2013-05-20 05:02:00,
2013-05-20 01:07:00,63.7,63.1,30.12,ESE,117,0.0,0.0,98,0.00,,BKN100,0.00,VWS V14.00,2013-05-20 05:07:00,
2013-05-20 01:13:00,63.5,62.9,30.12,ESE,117,0.0,0.0,98,0.01,,BKN100,0.01,VWS V14.00,2013-05-20 05:13:00,
2013-05-20 01:18:00,63.5,62.9,30.09,ESE,117,0.0,0.0,98,0.01,,BKN100,0.01,VWS V14.00,2013-05-20 05:18:00,
2013-05-20 01:23:00,63.3,62.7,30.09,ESE,117,0.0,0.0,98,0.01,,BKN100,0.01,VWS V14.00,2013-05-20 05:23:00,
2013-05-20 01:28:00,63.3,62.7,30.09,ESE,117,0.0,0.0,98,0.01,,BKN100,0.01,VWS V14.00,2013-05-20 05:28:00,
2013-05-20 01:33:00,63.3,62.7,30.09,ESE,113,0.0,0.0,98,0.01,,BKN100,0.01,VWS V14.00,2013-05-20 05:33:00,
2013-05-20 01:38:00,63.1,62.5,30.09,ESE,113,0.0,0.0,98,0.01,,BKN100,0.01,VWS V14.00,2013-05-20 05:38:00,
2013-05-20 01:43:00,63.1,62.5,30.09,ESE,113,0.0,0.0,98,0.01,,BKN100,0.01,VWS V14.00,2013-05-20 05:43:00,
2013-05-20 01:48:00,62.9,62.3,30.09,ESE,113,0.0,0.0,98,0.01,,BKN100,0.01,VWS V14.00,2013-05-20 05:48:00,
2013-05-20 01:53:00,62.9,62.3,30.09,ESE,113,0.0,0.0,98,0.01,,BKN100,0.01,VWS V14.00,2013-05-20 05:53:00,
2013-05-20 01:58:00,62.9,62.3,30.09,ESE,113,0.0,0.0,98,0.01,,BKN100,0.01,VWS V14.00,2013-05-20 05:58:00,
2013-05-20 02:03:00,62.7,62.2,30.09,ESE,113,0.0,0.0,98,0.01,,BKN055,0.01,VWS V14.00,2013-05-20 06:03:00,
2013-05-20 02:09:00,62.7,62.2,30.09,ESE,113,0.0,0.0,98,0.01,,BKN055,0.01,VWS V14.00,2013-05-20 06:09:00,
2013-05-20 02:13:00,62.7,62.2,30.09,ESE,113,0.0,0.0,98,0.00,,BKN055,0.01,VWS V14.00,2013-05-20 06:13:00,
2013-05-20 02:19:00,62.7,62.2,30.09,ESE,113,0.0,0.0,98,0.00,,BKN055,0.01,VWS V14.00,2013-05-20 06:19:00,
2013-05-20 02:24:00,62.7,62.2,30.09,ESE,113,0.0,0.0,98,0.00,,BKN055,0.01,VWS V14.00,2013-05-20 06:24:00,
2013-05-20 02:29:00,62.7,62.2,30.09,ESE,113,0.0,0.0,98,0.00,,BKN055,0.01,VWS V14.00,2013-05-20 06:29:00,
2013-05-20 02:34:00,62.7,62.2,30.09,ESE,113,0.0,0.0,98,0.00,,OVC047,0.01,VWS V14.00,2013-05-20 06:34:00,
2013-05-20 02:39:00,62.7,62.2,30.09,ESE,113,0.0,0.0,98,0.00,,OVC047,0.01,VWS V14.00,2013-05-20 06:39:00,
2013-05-20 02:44:00,62.5,62.0,30.09,ESE,113,0.0,0.0,98,0.00,,OVC047,0.01,VWS V14.00,2013-05-20 06:44:00,
2013-05-20 02:49:00,62.4,61.8,30.09,ESE,113,0.0,0.0,98,0.00,,OVC047,0.01,VWS V14.00,2013-05-20 06:49:00,
2013-05-20 02:54:00,62.0,61.4,30.09,ESE,113,0.0,0.0,98,0.00,,OVC047,0.01,VWS V14.00,2013-05-20 06:54:00,
2013-05-20 02:59:00,62.0,61.4,30.09,ESE,113,0.0,0.0,98,0.00,,OVC047,0.01,VWS V14.00,2013-05-20 06:59:00,
2013-05-20 03:04:00,62.0,61.4,30.09,ESE,113,0.0,0.0,98,0.00,,SCT035,0.01,VWS V14.00,2013-05-20 07:04:00,
2013-05-20 03:09:00,62.0,61.4,30.09,ESE,113,0.0,0.0,98,0.00,,SCT035,0.01,VWS V14.00,2013-05-20 07:09:00,
2013-05-20 03:15:00,62.0,61.4,30.09,ESE,113,0.0,0.0,98,0.00,,SCT035,0.01,VWS V14.00,2013-05-20 07:15:00,
2013-05-20 03:20:00,62.0,61.4,30.09,ESE,113,0.0,0.0,98,0.00,,SCT035,0.01,VWS V14.00,2013-05-20 07:20:00,
2013-05-20 03:25:00,62.0,61.4,30.09,ESE,113,0.0,0.0,98,0.00,,SCT035,0.01,VWS V14.00,2013-05-20 07:25:00,
2013-05-20 03:30:00,62.0,61.4,30.09,ESE,113,0.0,0.0,98,0.00,,SCT035,0.01,VWS V14.00,2013-05-20 07:30:00,
2013-05-20 03:35:00,62.0,61.4,30.09,ESE,113,0.0,0.0,98,0.00,,SCT035,0.01,VWS V14.00,2013-05-20 07:35:00,
2013-05-20 03:40:00,62.0,61.4,30.09,ESE,113,0.0,0.0,98,0.00,,SCT035,0.01,VWS V14.00,2013-05-20 07:40:00,
2013-05-20 03:45:00,62.0,61.4,30.09,ESE,113,0.0,0.0,98,0.00,,SCT035,0.01,VWS V14.00,2013-05-20 07:45:00,
2013-05-20 03:50:00,61.8,61.2,30.09,ESE,113,0.0,0.0,98,0.00,,SCT035,0.01,VWS V14.00,2013-05-20 07:50:00,
2013-05-20 03:55:00,61.6,61.1,30.09,ESE,113,0.0,0.0,98,0.00,,SCT035,0.01,VWS V14.00,2013-05-20 07:55:00,
2013-05-20 04:00:00,61.6,61.1,30.09,ESE,113,0.0,0.0,98,0.00,,SCT035,0.01,VWS V14.00,2013-05-20 08:00:00,
2013-05-20 04:05:00,61.8,61.2,30.09,ESE,113,0.0,0.0,98,0.00,,CLR,0.01,VWS V14.00,2013-05-20 08:05:00,
2013-05-20 04:10:00,61.6,61.1,30.09,ESE,113,0.0,0.0,98,0.00,,CLR,0.01,VWS V14.00,2013-05-20 08:10:00,
2013-05-20 04:16:00,61.6,61.1,30.09,ESE,113,0.0,0.0,98,0.00,,CLR,0.01,VWS V14.00,2013-05-20 08:16:00,
2013-05-20 04:21:00,61.6,61.1,30.09,ESE,113,0.0,0.0,98,0.00,,CLR,0.01,VWS V14.00,2013-05-20 08:21:00,
2013-05-20 04:26:00,61.8,61.2,30.09,ESE,113,0.0,0.0,98,0.00,,CLR,0.01,VWS V14.00,2013-05-20 08:26:00,
2013-05-20 04:31:00,61.4,60.9,30.09,ESE,113,0.0,0.0,98,0.00,,CLR,0.01,VWS V14.00,2013-05-20 08:31:00,
2013-05-20 04:36:00,61.6,61.1,30.09,ESE,113,0.0,0.0,98,0.00,,CLR,0.01,VWS V14.00,2013-05-20 08:36:00,
2013-05-20 04:41:00,61.6,61.1,30.09,ESE,113,0.0,0.0,98,0.00,,CLR,0.01,VWS V14.00,2013-05-20 08:41:00,
2013-05-20 04:46:00,61.6,61.1,30.09,ESE,113,0.0,0.0,98,0.00,,CLR,0.01,VWS V14.00,2013-05-20 08:46:00,
2013-05-20 04:51:00,61.8,61.2,30.09,ESE,113,0.0,0.0,98,0.00,,CLR,0.01,VWS V14.00,2013-05-20 08:51:00,
2013-05-20 04:56:00,61.8,61.2,30.09,ESE,113,0.0,0.0,98,0.00,,CLR,0.01,VWS V14.00,2013-05-20 08:56:00,
2013-05-20 05:01:00,61.6,61.1,30.09,ESE,113,0.0,0.0,98,0.00,,CLR,0.01,VWS V14.00,2013-05-20 09:01:00,
2013-05-20 05:07:00,61.4,60.9,30.09,ESE,113,0.0,0.0,98,0.00,,CLR,0.01,VWS V14.00,2013-05-20 09:07:00,
2013-05-20 05:12:00,61.4,60.9,30.09,ESE,113,0.0,0.0,98,0.00,,CLR,0.01,VWS V14.00,2013-05-20 09:12:00,
2013-05-20 05:17:00,61.4,60.9,30.09,ESE,113,0.0,0.0,98,0.00,,CLR,0.01,VWS V14.00,2013-05-20 09:17:00,
2013-05-20 05:22:00,61.4,60.9,30.09,ESE,113,0.0,0.0,98,0.00,,CLR,0.01,VWS V14.00,2013-05-20 09:22:00,
2013-05-20 05:27:00,61.4,60.9,30.09,ESE,113,0.0,0.0,98,0.00,,CLR,0.01,VWS V14.00,2013-05-20 09:27:00,
2013-05-20 05:32:00,61.4,60.9,30.09,ESE,113,0.0,0.0,98,0.00,,CLR,0.01,VWS V14.00,2013-05-20 09:32:00,
2013-05-20 05:37:00,61.4,60.9,30.09,ESE,113,0.0,0.0,98,0.00,,CLR,0.01,VWS V14.00,2013-05-20 09:37:00,
2013-05-20 05:42:00,60.9,60.3,30.09,NNW,336,0.0,0.0,98,0.00,,CLR,0.01,VWS V14.00,2013-05-20 09:42:00,
2013-05-20 05:47:00,60.7,60.1,30.09,NNW,336,0.0,0.0,98,0.00,,CLR,0.01,VWS V14.00,2013-05-20 09:47:00,
2013-05-20 05:53:00,60.9,60.3,30.09,NNW,336,0.0,0.0,98,0.00,,CLR,0.01,VWS V14.00,2013-05-20 09:53:00,
2013-05-20 05:58:00,60.9,60.3,30.09,NNW,336,0.0,0.0,98,0.00,,CLR,0.01,VWS V14.00,2013-05-20 09:58:00,
2013-05-20 06:03:00,60.9,60.3,30.09,NNW,336,0.0,0.0,98,0.00,,CLR,0.01,VWS V14.00,2013-05-20 10:03:00,
2013-05-20 06:08:00,60.9,60.3,30.09,NNW,336,0.0,0.0,98,0.00,,CLR,0.01,VWS V14.00,2013-05-20 10:08:00,
2013-05-20 06:13:00,60.9,60.3,30.09,NNW,336,0.0,0.0,98,0.00,,CLR,0.01,VWS V14.00,2013-05-20 10:13:00,
2013-05-20 06:18:00,60.9,60.3,30.09,NNW,336,0.0,0.0,98,0.00,,CLR,0.01,VWS V14.00,2013-05-20 10:18:00,
2013-05-20 06:23:00,60.9,60.3,30.09,NNW,336,0.0,0.0,98,0.00,,CLR,0.01,VWS V14.00,2013-05-20 10:23:00,
2013-05-20 06:28:00,60.9,60.3,30.09,NNW,336,0.0,0.0,98,0.00,,CLR,0.01,VWS V14.00,2013-05-20 10:28:00,
2013-05-20 06:33:00,60.9,60.3,30.09,NNW,336,0.0,0.0,98,0.00,,CLR,0.01,VWS V14.00,2013-05-20 10:33:00,
2013-05-20 06:39:00,60.9,60.3,30.09,NNW,336,0.0,0.0,98,0.00,,CLR,0.01,VWS V14.00,2013-05-20 10:39:00,
2013-05-20 06:44:00,60.9,60.3,30.09,NNW,336,0.0,0.0,98,0.00,,CLR,0.01,VWS V14.00,2013-05-20 10:44:00,
2013-05-20 06:49:00,60.9,60.3,30.09,NNW,336,0.0,0.0,98,0.00,,CLR,0.01,VWS V14.00,2013-05-20 10:49:00,
2013-05-20 06:54:00,60.9,60.3,30.09,NNW,336,0.0,0.0,98,0.00,,CLR,0.01,VWS V14.00,2013-05-20 10:54:00,
2013-05-20 06:59:00,60.9,60.3,30.09,NNW,336,0.0,0.0,98,0.00,,CLR,0.01,VWS V14.00,2013-05-20 10:59:00,
2013-05-20 07:04:00,60.3,59.8,30.09,NNW,336,0.0,0.0,98,0.00,,FEW049,0.01,VWS V14.00,2013-05-20 11:04:00,
2013-05-20 07:09:00,60.3,59.8,30.09,NNW,336,0.0,0.0,98,0.00,,FEW049,0.01,VWS V14.00,2013-05-20 11:09:00,
2013-05-20 07:14:00,60.3,59.8,30.09,NNW,336,0.0,0.0,98,0.00,,FEW049,0.01,VWS V14.00,2013-05-20 11:14:00,
2013-05-20 07:19:00,60.5,60.0,30.12,NNW,336,0.0,0.0,98,0.00,,FEW049,0.01,VWS V14.00,2013-05-20 11:19:00,
2013-05-20 07:25:00,60.7,60.1,30.12,NNW,336,0.0,0.0,98,0.00,,FEW049,0.01,VWS V14.00,2013-05-20 11:25:00,
2013-05-20 07:30:00,60.7,60.1,30.12,NNW,336,0.0,0.0,98,0.00,,FEW049,0.01,VWS V14.00,2013-05-20 11:30:00,
2013-05-20 07:35:00,60.9,60.3,30.12,NNW,336,0.0,0.0,98,0.00,,FEW049,0.01,VWS V14.00,2013-05-20 11:35:00,
2013-05-20 07:40:00,60.9,60.3,30.12,NNW,336,0.0,0.0,98,0.00,,FEW049,0.01,VWS V14.00,2013-05-20 11:40:00,
2013-05-20 07:45:00,60.9,60.3,30.12,NNW,336,0.0,0.0,98,0.00,,FEW049,0.01,VWS V14.00,2013-05-20 11:45:00,
2013-05-20 07:50:00,61.1,60.5,30.12,NNW,336,0.0,0.0,98,0.00,,FEW049,0.01,VWS V14.00,2013-05-20 11:50:00,
2013-05-20 07:55:00,61.2,60.7,30.12,South,189,0.0,0.0,98,0.00,,FEW049,0.01,VWS V14.00,2013-05-20 11:55:00,
2013-05-20 08:00:00,61.2,60.7,30.12,South,174,0.0,0.0,98,0.00,,FEW049,0.01,VWS V14.00,2013-05-20 12:00:00,
2013-05-20 08:05:00,61.6,61.1,30.12,South,174,0.0,0.0,98,0.00,,OVC050,0.01,VWS V14.00,2013-05-20 12:05:00,
2013-05-20 08:10:00,61.8,61.2,30.12,SSW,201,0.0,0.0,98,0.00,,OVC050,0.01,VWS V14.00,2013-05-20 12:10:00,
2013-05-20 08:15:00,61.6,61.1,30.12,SSW,201,0.0,0.0,98,0.00,,OVC046,0.01,VWS V14.00,2013-05-20 12:15:00,
2013-05-20 08:20:00,62.2,61.6,30.12,SSW,201,0.0,0.0,98,0.00,,OVC046,0.01,VWS V14.00,2013-05-20 12:20:00,
2013-05-20 08:25:00,62.2,61.6,30.12,SSW,201,0.0,0.0,98,0.00,,OVC046,0.01,VWS V14.00,2013-05-20 12:25:00,
2013-05-20 08:31:00,62.5,62.0,30.12,SSW,197,0.0,0.0,98,0.00,,OVC046,0.01,VWS V14.00,2013-05-20 12:31:00,
2013-05-20 08:36:00,62.9,62.3,30.12,SSW,196,0.0,0.0,98,0.00,,OVC046,0.01,VWS V14.00,2013-05-20 12:36:00,
2013-05-20 08:41:00,63.1,62.5,30.12,SSW,199,0.0,0.0,98,0.00,,OVC046,0.01,VWS V14.00,2013-05-20 12:41:00,
2013-05-20 08:46:00,63.3,62.7,30.12,SSW,213,0.0,0.0,98,0.00,,OVC075,0.01,VWS V14.00,2013-05-20 12:46:00,
2013-05-20 08:51:00,63.5,62.9,30.12,WNW,302,0.0,0.0,98,0.00,,OVC075,0.01,VWS V14.00,2013-05-20 12:51:00,
2013-05-20 08:56:00,63.7,63.1,30.12,NW,317,0.0,0.0,98,0.00,,OVC075,0.01,VWS V14.00,2013-05-20 12:56:00,
2013-05-20 09:01:00,63.8,63.3,30.12,NW,315,0.0,0.0,98,0.00,,OVC075,0.01,VWS V14.00,2013-05-20 13:01:00,
2013-05-20 09:06:00,64.2,63.7,30.12,NW,315,0.0,0.0,98,0.00,,OVC075,0.01,VWS V14.00,2013-05-20 13:06:00,
2013-05-20 09:11:00,64.4,63.8,30.12,NW,313,3.0,3.8,98,0.00,,OVC075,0.01,VWS V14.00,2013-05-20 13:11:00,
2013-05-20 09:17:00,64.4,63.8,30.12,NW,321,0.0,0.0,98,0.00,,OVC075,0.01,VWS V14.00,2013-05-20 13:17:00,
2013-05-20 09:22:00,64.6,64.0,30.12,NW,321,0.0,0.0,98,0.00,,OVC075,0.01,VWS V14.00,2013-05-20 13:22:00,
2013-05-20 09:27:00,65.0,64.4,30.12,WNW,283,0.0,0.0,98,0.00,,OVC075,0.01,VWS V14.00,2013-05-20 13:27:00,
2013-05-20 09:32:00,65.2,64.6,30.12,WNW,283,0.0,0.0,98,0.00,,OVC075,0.01,VWS V14.00,2013-05-20 13:32:00,
2013-05-20 09:37:00,65.7,65.1,30.12,WNW,283,0.0,0.0,98,0.00,,OVC075,0.01,VWS V14.00,2013-05-20 13:37:00,
2013-05-20 09:42:00,66.1,65.5,30.12,SW,219,0.0,0.0,98,0.00,,OVC075,0.01,VWS V14.00,2013-05-20 13:42:00,
2013-05-20 09:47:00,66.1,65.5,30.12,SSW,203,0.0,0.0,98,0.00,,OVC075,0.01,VWS V14.00,2013-05-20 13:47:00,
2013-05-20 09:52:00,66.3,65.7,30.12,SW,218,0.0,0.0,98,0.00,,OVC075,0.01,VWS V14.00,2013-05-20 13:52:00,
2013-05-20 09:57:00,66.6,65.5,30.12,South,191,0.0,0.0,96,0.00,,OVC075,0.01,VWS V14.00,2013-05-20 13:57:00,
2013-05-20 10:03:00,66.8,64.7,30.12,SSE,152,3.4,3.8,93,0.00,,OVC037,0.01,VWS V14.00,2013-05-20 14:03:00,
2013-05-20 10:08:00,67.0,64.3,30.12,West,277,0.0,0.0,91,0.00,,OVC037,0.01,VWS V14.00,2013-05-20 14:08:00,
2013-05-20 10:13:00,67.2,64.5,30.12,SW,228,0.0,0.0,91,0.00,,OVC037,0.01,VWS V14.00,2013-05-20 14:13:00,
2013-05-20 10:18:00,67.6,64.5,30.12,West,270,0.0,0.0,90,0.00,,OVC037,0.01,VWS V14.00,2013-05-20 14:18:00,
2013-05-20 10:23:00,67.6,63.9,30.12,SE,130,0.0,0.0,88,0.00,,OVC037,0.01,VWS V14.00,2013-05-20 14:23:00,
2013-05-20 10:28:00,67.6,63.6,30.12,SSE,164,0.0,0.0,87,0.00,,OVC037,0.01,VWS V14.00,2013-05-20 14:28:00,
2013-05-20 10:33:00,67.7,63.4,30.12,West,274,0.0,0.0,86,0.00,,OVC037,0.01,VWS V14.00,2013-05-20 14:33:00,
2013-05-20 10:38:00,67.7,63.7,30.12,SW,233,0.0,0.0,87,0.00,,OVC037,0.01,VWS V14.00,2013-05-20 14:38:00,
2013-05-20 10:43:00,67.9,63.9,30.12,SSE,151,0.0,0.0,87,0.00,,OVC037,0.01,VWS V14.00,2013-05-20 14:43:00,
2013-05-20 10:49:00,68.5,62.8,30.12,SSE,166,0.0,4.8,82,0.00,,OVC080,0.01,VWS V14.00,2013-05-20 14:49:00,
2013-05-20 10:54:00,68.8,62.8,30.12,SSE,159,5.9,6.4,81,0.00,,OVC080,0.01,VWS V14.00,2013-05-20 14:54:00,
2013-05-20 10:59:00,68.8,63.1,30.12,SSW,203,2.5,3.2,82,0.00,,OVC080,0.01,VWS V14.00,2013-05-20 14:59:00,
2013-05-20 11:04:00,69.0,63.3,30.12,SSE,151,4.4,4.8,82,0.00,,OVC021,0.01,VWS V14.00,2013-05-20 15:04:00,
2013-05-20 11:09:00,69.4,63.0,30.12,WSW,256,3.4,4.3,80,0.00,,OVC021,0.01,VWS V14.00,2013-05-20 15:09:00,
2013-05-20 11:14:00,70.0,63.5,30.12,WNW,296,5.4,5.9,80,0.00,,OVC021,0.01,VWS V14.00,2013-05-20 15:14:00,
2013-05-20 11:19:00,70.3,63.5,30.12,SSW,195,3.4,3.8,79,0.00,,OVC021,0.01,VWS V14.00,2013-05-20 15:19:00,
2013-05-20 11:24:00,70.3,62.8,30.12,West,260,3.4,5.9,77,0.00,,OVC021,0.01,VWS V14.00,2013-05-20 15:24:00,
2013-05-20 11:29:00,70.7,63.5,30.12,SSE,147,3.0,3.2,78,0.00,,OVC021,0.01,VWS V14.00,2013-05-20 15:29:00,
2013-05-20 11:34:00,70.9,63.3,30.12,NW,316,0.0,4.8,77,0.00,,OVC021,0.01,VWS V14.00,2013-05-20 15:34:00,
2013-05-20 11:40:00,71.3,62.9,30.12,SW,219,3.4,4.8,75,0.00,,OVC021,0.01,VWS V14.00,2013-05-20 15:40:00,
2013-05-20 11:44:00,71.3,63.3,30.12,WNW,287,3.9,4.8,76,0.00,,OVC021,0.01,VWS V14.00,2013-05-20 15:44:00,
2013-05-20 11:50:00,71.8,63.9,30.12,WSW,244,3.4,7.5,76,0.00,,OVC021,0.01,VWS V14.00,2013-05-20 15:50:00,
2013-05-20 11:55:00,72.0,63.7,30.12,WNW,284,3.9,7.0,75,0.00,,OVC021,0.01,VWS V14.00,2013-05-20 15:55:00,
2013-05-20 12:00:00,72.0,62.9,30.12,SE,143,3.4,6.4,73,0.00,,OVC021,0.01,VWS V14.00,2013-05-20 16:00:00,
2013-05-20 12:05:00,71.8,62.7,30.12,WSW,249,3.9,6.4,73,0.00,,OVC012,0.01,VWS V14.00,2013-05-20 16:05:00,
2013-05-20 12:10:00,72.2,63.1,30.12,WSW,253,3.4,4.3,73,0.00,,OVC012,0.01,VWS V14.00,2013-05-20 16:10:00,
2013-05-20 12:15:00,72.8,64.4,30.12,WSW,245,3.0,3.8,75,0.00,,OVC012,0.01,VWS V14.00,2013-05-20 16:15:00,
2013-05-20 12:20:00,72.8,64.0,30.12,WSW,246,6.4,7.0,74,0.00,,OVC012,0.01,VWS V14.00,2013-05-20 16:20:00,
2013-05-20 12:25:00,72.4,62.8,30.12,SSW,200,3.9,4.3,72,0.00,,OVC012,0.01,VWS V14.00,2013-05-20 16:25:00,
2013-05-20 12:30:00,72.4,63.2,30.12,SSW,211,2.5,3.2,73,0.00,,OVC012,0.01,VWS V14.00,2013-05-20 16:30:00,
2013-05-20 12:35:00,72.8,64.0,30.12,West,264,2.5,3.2,74,0.00,,OVC012,0.01,VWS V14.00,2013-05-20 16:35:00,
2013-05-20 12:40:00,73.1,64.0,30.12,SSW,211,3.0,4.3,73,0.00,,OVC012,0.01,VWS V14.00,2013-05-20 16:40:00,
2013-05-20 12:46:00,73.3,62.5,30.12,South,176,4.4,4.8,69,0.00,,OVC012,0.01,VWS V14.00,2013-05-20 16:46:00,
2013-05-20 12:51:00,73.3,62.1,30.09,SW,222,4.4,7.0,68,0.00,,OVC012,0.01,VWS V14.00,2013-05-20 16:51:00,
2013-05-20 12:56:00,73.9,63.1,30.09,SSW,205,0.0,4.3,69,0.00,,OVC012,0.01,VWS V14.00,2013-05-20 16:56:00,
2013-05-20 13:01:00,74.4,63.2,30.09,WNW,295,3.0,4.8,68,0.00,,OVC012,0.01,VWS V14.00,2013-05-20 17:01:00,
2013-05-20 13:06:00,74.8,63.5,30.09,WNW,292,4.4,4.8,68,0.00,,-RA,0.01,VWS V14.00,2013-05-20 17:06:00,
2013-05-20 13:11:00,75.2,63.9,30.09,SSE,162,2.5,5.4,68,0.00,,-RA,0.01,VWS V14.00,2013-05-20 17:11:00,
2013-05-20 13:16:00,75.7,63.6,30.09,SW,216,3.4,7.5,66,0.00,,RA,0.01,VWS V14.00,2013-05-20 17:16:00,
2013-05-20 13:21:00,75.9,63.7,30.09,South,174,3.0,4.8,66,0.00,,RA,0.01,VWS V14.00,2013-05-20 17:21:00,
2013-05-20 13:26:00,75.7,64.0,30.09,WSW,250,3.9,6.4,67,0.00,,RA,0.01,VWS V14.00,2013-05-20 17:26:00,
2013-05-20 13:31:00,75.3,63.6,30.09,WSW,257,5.9,9.7,67,0.00,,-RA,0.01,VWS V14.00,2013-05-20 17:31:00,
2013-05-20 13:36:00,75.9,63.3,30.09,South,191,3.9,6.4,65,0.00,,-RA,0.01,VWS V14.00,2013-05-20 17:36:00,
2013-05-20 13:42:00,76.1,63.0,30.09,WSW,237,3.0,4.8,64,0.00,,-RA,0.01,VWS V14.00,2013-05-20 17:42:00,
2013-05-20 13:47:00,75.7,62.7,30.09,South,179,3.9,4.3,64,0.00,,-RA,0.01,VWS V14.00,2013-05-20 17:47:00,
2013-05-20 13:52:00,75.5,62.5,30.09,WSW,254,5.4,7.5,64,0.00,,-RA,0.01,VWS V14.00,2013-05-20 17:52:00,
2013-05-20 13:57:00,75.7,62.7,30.09,West,262,3.9,4.3,64,0.00,,-RA,0.01,VWS V14.00,2013-05-20 17:57:00,
2013-05-20 14:02:00,76.3,64.1,30.09,SSW,194,3.9,7.5,66,0.00,,-RA,0.01,VWS V14.00,2013-05-20 18:02:00,
2013-05-20 14:07:00,76.1,63.0,30.09,South,185,3.9,4.8,64,0.00,,-RA,0.01,VWS V14.00,2013-05-20 18:07:00,
2013-05-20 14:12:00,76.5,62.5,30.09,South,175,3.0,6.4,62,0.00,,-RA,0.01,VWS V14.00,2013-05-20 18:12:00,
2013-05-20 14:17:00,77.4,63.4,30.09,SSE,162,2.5,5.9,62,0.00,,-RA,0.01,VWS V14.00,2013-05-20 18:17:00,
2013-05-20 14:22:00,77.2,64.1,30.09,West,281,4.4,4.8,64,0.00,,-RA,0.01,VWS V14.00,2013-05-20 18:22:00,
2013-05-20 14:27:00,77.8,64.6,30.09,SW,230,6.4,7.0,64,0.00,,-RA,0.01,VWS V14.00,2013-05-20 18:27:00,
2013-05-20 14:32:00,78.3,65.1,30.09,West,281,6.4,11.0,64,0.00,,-RA,0.01,VWS V14.00,2013-05-20 18:32:00,
2013-05-20 14:37:00,77.2,64.5,30.09,WSW,242,6.9,11.0,65,0.00,,-RA,0.01,VWS V14.00,2013-05-20 18:37:00,
2013-05-20 14:43:00,76.1,62.6,30.09,West,267,5.9,6.4,63,0.00,,-RA,0.01,VWS V14.00,2013-05-20 18:43:00,
2013-05-20 14:48:00,75.5,62.5,30.09,West,276,6.4,7.0,64,0.00,,-RA,0.01,VWS V14.00,2013-05-20 18:48:00,
2013-05-20 14:53:00,74.8,61.8,30.09,NW,316,5.4,6.4,64,0.00,,-RA,0.01,VWS V14.00,2013-05-20 18:53:00,
2013-05-20 14:58:00,73.5,61.0,30.09,South,184,3.4,9.9,65,0.00,,-RA,0.01,VWS V14.00,2013-05-20 18:58:00,
2013-05-20 15:03:00,72.9,60.9,30.09,WSW,239,3.9,6.4,66,0.00,,BKN120,0.01,VWS V14.00,2013-05-20 19:03:00,
2013-05-20 15:08:00,72.8,61.6,30.09,West,266,3.9,7.0,68,0.00,,BKN120,0.01,VWS V14.00,2013-05-20 19:08:00,
2013-05-20 15:13:00,72.6,61.8,30.09,SW,234,5.9,6.4,69,0.00,,BKN120,0.01,VWS V14.00,2013-05-20 19:13:00,
2013-05-20 15:18:00,72.4,62.5,30.09,WSW,246,7.9,8.6,71,0.00,,BKN120,0.01,VWS V14.00,2013-05-20 19:18:00,
2013-05-20 15:23:00,72.8,62.8,30.09,WSW,251,6.4,7.0,71,0.00,,BKN120,0.01,VWS V14.00,2013-05-20 19:23:00,
2013-05-20 15:28:00,73.5,63.5,30.09,West,271,6.4,7.0,71,0.00,,BKN120,0.01,VWS V14.00,2013-05-20 19:28:00,
2013-05-20 15:33:00,73.9,63.9,30.09,WSW,238,5.4,7.0,71,0.00,,BKN120,0.01,VWS V14.00,2013-05-20 19:33:00,
2013-05-20 15:38:00,73.5,63.1,30.09,SSW,203,5.9,6.4,70,0.00,,BKN120,0.01,VWS V14.00,2013-05-20 19:38:00,
2013-05-20 15:43:00,73.3,62.9,30.09,South,172,5.4,5.9,70,0.00,,BKN120,0.01,VWS V14.00,2013-05-20 19:43:00,
2013-05-20 15:49:00,73.5,63.5,30.06,South,180,3.4,9.7,71,0.00,,SCT008,0.01,VWS V14.00,2013-05-20 19:49:00,
2013-05-20 15:54:00,73.7,63.3,30.06,SSE,158,4.4,7.0,70,0.00,,SCT008,0.01,VWS V14.00,2013-05-20 19:54:00,
2013-05-20 15:59:00,74.4,64.0,30.06,SSW,200,3.4,6.4,70,0.00,,SCT008,0.01,VWS V14.00,2013-05-20 19:59:00,
2013-05-20 16:04:00,74.6,64.2,30.06,SSE,163,2.5,3.8,70,0.00,,BKN008,0.01,VWS V14.00,2013-05-20 20:04:00,
2013-05-20 16:09:00,74.8,63.5,30.06,SW,220,4.4,6.4,68,0.00,,BKN008,0.01,VWS V14.00,2013-05-20 20:09:00,
2013-05-20 16:14:00,74.4,63.6,30.06,WSW,252,5.4,5.9,69,0.00,,BKN008,0.01,VWS V14.00,2013-05-20 20:14:00,
2013-05-20 16:19:00,74.1,63.2,30.06,SSW,195,4.4,4.8,69,0.00,,BKN008,0.01,VWS V14.00,2013-05-20 20:19:00,
2013-05-20 16:24:00,73.9,63.1,30.06,SW,234,5.9,6.4,69,0.00,,BKN008,0.01,VWS V14.00,2013-05-20 20:24:00,
2013-05-20 16:29:00,73.9,63.5,30.06,WSW,249,3.4,3.8,70,0.00,,BKN008,0.01,VWS V14.00,2013-05-20 20:29:00,
2013-05-20 16:35:00,74.2,64.2,30.06,SW,236,3.0,4.3,71,0.00,,BKN008,0.01,VWS V14.00,2013-05-20 20:35:00,
2013-05-20 16:40:00,74.2,64.2,30.06,WSW,247,3.4,3.8,71,0.00,,BKN008,0.01,VWS V14.00,2013-05-20 20:40:00,
2013-05-20 16:45:00,74.4,64.8,30.06,South,169,0.0,5.9,72,0.00,,BKN008,0.01,VWS V14.00,2013-05-20 20:45:00,
2013-05-20 16:50:00,74.2,64.2,30.06,SW,236,4.4,6.4,71,0.00,,BKN008,0.01,VWS V14.00,2013-05-20 20:50:00,
2013-05-20 16:55:00,74.2,63.8,30.06,WSW,254,3.9,4.3,70,0.00,,BKN008,0.01,VWS V14.00,2013-05-20 20:55:00,
2013-05-20 17:00:00,74.2,64.2,30.06,SSW,192,5.9,6.4,71,0.00,,BKN008,0.01,VWS V14.00,2013-05-20 21:00:00,
2013-05-20 17:05:00,74.1,63.7,30.06,South,187,4.4,7.0,70,0.00,,OVC010,0.01,VWS V14.00,2013-05-20 21:05:00,
2013-05-20 17:10:00,74.2,63.8,30.06,South,171,3.4,7.0,70,0.00,,OVC010,0.01,VWS V14.00,2013-05-20 21:10:00,
2013-05-20 17:15:00,74.2,63.0,30.06,SSW,196,4.4,4.8,68,0.00,,OVC010,0.01,VWS V14.00,2013-05-20 21:15:00,
2013-05-20 17:20:00,74.4,63.6,30.06,SSW,199,3.0,4.8,69,0.00,,OVC010,0.01,VWS V14.00,2013-05-20 21:20:00,
2013-05-20 17:25:00,74.6,62.5,30.06,South,189,3.0,4.3,66,0.00,,OVC010,0.01,VWS V14.00,2013-05-20 21:25:00,
2013-05-20 17:30:00,74.8,63.1,30.06,WSW,240,5.9,6.4,67,0.00,,OVC010,0.01,VWS V14.00,2013-05-20 21:30:00,
2013-05-20 17:35:00,74.6,62.5,30.06,SE,139,4.4,4.8,66,0.00,,OVC010,0.01,VWS V14.00,2013-05-20 21:35:00,
2013-05-20 17:40:00,75.0,63.7,30.06,WSW,256,6.9,7.5,68,0.00,,OVC010,0.01,VWS V14.00,2013-05-20 21:40:00,
2013-05-20 17:46:00,75.2,63.5,30.06,SW,222,3.9,7.0,67,0.00,,OVC010,0.01,VWS V14.00,2013-05-20 21:46:00,
2013-05-20 17:51:00,75.3,63.6,30.06,South,189,3.9,6.4,67,0.00,,OVC010,0.01,VWS V14.00,2013-05-20 21:51:00,
2013-05-20 17:56:00,75.2,63.5,30.06,SW,228,4.4,4.8,67,0.00,,OVC010,0.01,VWS V14.00,2013-05-20 21:56:00,
2013-05-20 18:01:00,74.8,63.5,30.06,West,265,5.9,7.5,68,0.00,,OVC010,0.01,VWS V14.00,2013-05-20 22:01:00,
2013-05-20 18:06:00,74.8,63.5,30.06,SW,230,3.4,5.9,68,0.00,,OVC010,0.01,VWS V14.00,2013-05-20 22:06:00,
2013-05-20 18:11:00,74.2,62.2,30.06,SW,229,3.4,4.8,66,0.00,,OVC010,0.01,VWS V14.00,2013-05-20 22:11:00,
2013-05-20 18:16:00,73.9,62.2,30.06,South,187,4.4,4.8,67,0.00,,OVC010,0.01,VWS V14.00,2013-05-20 22:16:00,
2013-05-20 18:21:00,73.9,62.2,30.06,SSW,202,3.4,3.8,67,0.00,,OVC010,0.01,VWS V14.00,2013-05-20 22:21:00,
2013-05-20 18:26:00,73.7,62.5,30.06,SW,232,3.0,3.2,68,0.00,,OVC010,0.01,VWS V14.00,2013-05-20 22:26:00,
2013-05-20 18:31:00,73.7,62.5,30.06,SSW,192,0.0,3.2,68,0.00,,OVC010,0.01,VWS V14.00,2013-05-20 22:31:00,
2013-05-20 18:37:00,73.7,62.9,30.06,SW,230,3.9,4.3,69,0.00,,OVC010,0.01,VWS V14.00,2013-05-20 22:37:00,
2013-05-20 18:42:00,73.5,62.7,30.06,SSW,205,0.0,0.0,69,0.00,,OVC010,0.01,VWS V14.00,2013-05-20 22:42:00,
2013-05-20 18:47:00,73.9,63.1,30.06,South,177,3.4,4.3,69,0.00,,OVC010,0.01,VWS V14.00,2013-05-20 22:47:00,
2013-05-20 18:52:00,73.9,63.1,30.06,SSW,197,6.4,7.0,69,0.00,,OVC010,0.01,VWS V14.00,2013-05-20 22:52:00,
2013-05-20 18:57:00,73.7,62.9,30.06,SSW,204,3.4,5.9,69,0.00,,OVC010,0.01,VWS V14.00,2013-05-20 22:57:00,
2013-05-20 19:02:00,73.3,62.5,30.06,WSW,242,3.9,4.8,69,0.00,,BKN010,0.01,VWS V14.00,2013-05-20 23:02:00,
2013-05-20 19:07:00,73.3,62.5,30.06,SSE,167,0.0,3.2,69,0.00,,BKN010,0.01,VWS V14.00,2013-05-20 23:07:00,
2013-05-20 19:12:00,73.3,62.9,30.06,South,189,2.5,3.2,70,0.00,,BKN010,0.01,VWS V14.00,2013-05-20 23:12:00,
2013-05-20 19:17:00,73.3,62.9,30.06,SE,145,3.0,3.2,70,0.00,,BKN010,0.01,VWS V14.00,2013-05-20 23:17:00,
2013-05-20 19:22:00,73.3,62.9,30.06,South,172,2.5,3.8,70,0.00,,BKN010,0.01,VWS V14.00,2013-05-20 23:22:00,
2013-05-20 19:27:00,73.1,62.8,30.06,SSE,157,3.0,3.8,70,0.00,,BKN010,0.01,VWS V14.00,2013-05-20 23:27:00,
2013-05-20 19:32:00,72.9,63.0,30.06,SE,139,0.0,2.7,71,0.00,,SCT010,0.01,VWS V14.00,2013-05-20 23:32:00,
2013-05-20 19:37:00,72.8,62.8,30.06,SE,139,0.0,0.0,71,0.00,,SCT010,0.01,VWS V14.00,2013-05-20 23:37:00,
2013-05-20 19:42:00,72.8,62.8,30.06,SE,139,0.0,0.0,71,0.00,,SCT010,0.01,VWS V14.00,2013-05-20 23:42:00,
2013-05-20 19:47:00,72.8,63.2,30.06,SE,139,2.5,2.7,72,0.00,,SCT010,0.01,VWS V14.00,2013-05-20 23:47:00,
2013-05-20 19:52:00,72.6,63.0,30.06,SE,141,2.5,2.7,72,0.00,,SCT010,0.01,VWS V14.00,2013-05-20 23:52:00,
2013-05-20 19:57:00,72.4,62.8,30.06,SE,141,0.0,0.0,72,0.00,,SCT010,0.01,VWS V14.00,2013-05-20 23:57:00,
2013-05-20 20:02:00,72.2,63.1,30.06,SE,141,0.0,0.0,73,0.00,,CLR,0.01,VWS V14.00,2013-05-21 00:02:00,
2013-05-20 20:08:00,72.0,62.9,30.06,SE,141,0.0,0.0,73,0.00,,CLR,0.01,VWS V14.00,2013-05-21 00:08:00,
2013-05-20 20:13:00,72.0,62.9,30.06,SE,141,0.0,2.7,73,0.00,,CLR,0.01,VWS V14.00,2013-05-21 00:13:00,
2013-05-20 20:18:00,71.8,62.7,30.06,SE,141,0.0,0.0,73,0.00,,CLR,0.01,VWS V14.00,2013-05-21 00:18:00,
2013-05-20 20:23:00,71.3,62.6,30.06,NNW,329,3.4,3.8,74,0.00,,CLR,0.01,VWS V14.00,2013-05-21 00:23:00,
2013-05-20 20:28:00,70.5,63.7,30.06,NNW,339,0.0,0.0,79,0.00,,CLR,0.01,VWS V14.00,2013-05-21 00:28:00,
2013-05-20 20:33:00,70.2,63.7,30.06,NNW,339,0.0,0.0,80,0.00,,CLR,0.01,VWS V14.00,2013-05-21 00:33:00,
2013-05-20 20:38:00,70.3,63.9,30.06,NNW,339,0.0,0.0,80,0.00,,CLR,0.01,VWS V14.00,2013-05-21 00:38:00,
2013-05-20 20:43:00,70.3,63.9,30.06,NNW,339,0.0,0.0,80,0.00,,CLR,0.01,VWS V14.00,2013-05-21 00:43:00,
2013-05-20 20:48:00,70.2,63.7,30.06,NNW,339,0.0,0.0,80,0.00,,CLR,0.01,VWS V14.00,2013-05-21 00:48:00,
2013-05-20 20:53:00,70.0,63.5,30.06,NNW,339,0.0,0.0,80,0.00,,CLR,0.01,VWS V14.00,2013-05-21 00:53:00,
2013-05-20 20:58:00,69.8,63.7,30.06,NNW,339,0.0,0.0,81,0.00,,CLR,0.01,VWS V14.00,2013-05-21 00:58:00,
2013-05-20 21:03:00,69.6,63.5,30.06,NNW,339,0.0,0.0,81,0.00,,CLR,0.01,VWS V14.00,2013-05-21 01:03:00,
2013-05-20 21:08:00,69.2,63.2,30.06,NNW,339,0.0,0.0,81,0.00,,CLR,0.01,VWS V14.00,2013-05-21 01:08:00,
2013-05-20 21:13:00,69.0,63.3,30.06,NNW,339,0.0,0.0,82,0.00,,CLR,0.01,VWS V14.00,2013-05-21 01:13:00,
2013-05-20 21:19:00,68.8,63.5,30.06,NNW,339,0.0,2.7,83,0.00,,CLR,0.01,VWS V14.00,2013-05-21 01:19:00,
2013-05-20 21:24:00,68.7,63.3,30.06,NNE,31,0.0,0.0,83,0.00,,CLR,0.01,VWS V14.00,2013-05-21 01:24:00,
2013-05-20 21:29:00,68.5,63.1,30.06,NNE,31,0.0,0.0,83,0.00,,CLR,0.01,VWS V14.00,2013-05-21 01:29:00,
2013-05-20 21:34:00,68.1,63.1,30.06,NNE,31,0.0,0.0,84,0.00,,CLR,0.01,VWS V14.00,2013-05-21 01:34:00,
2013-05-20 21:39:00,67.7,63.1,30.06,NNE,31,0.0,0.0,85,0.00,,CLR,0.01,VWS V14.00,2013-05-21 01:39:00,
2013-05-20 21:44:00,67.6,63.2,30.06,NNE,31,0.0,0.0,86,0.00,,CLR,0.01,VWS V14.00,2013-05-21 01:44:00,
2013-05-20 21:49:00,67.4,63.0,30.06,NNE,31,0.0,0.0,86,0.00,,CLR,0.01,VWS V14.00,2013-05-21 01:49:00,
2013-05-20 21:54:00,67.2,63.2,30.06,NNE,31,0.0,0.0,87,0.00,,CLR,0.01,VWS V14.00,2013-05-21 01:54:00,
2013-05-20 21:59:00,67.2,63.2,30.06,NNE,31,0.0,0.0,87,0.00,,CLR,0.01,VWS V14.00,2013-05-21 01:59:00,
2013-05-20 22:04:00,67.0,63.3,30.06,NNE,31,0.0,0.0,88,0.00,,CLR,0.01,VWS V14.00,2013-05-21 02:04:00,
2013-05-20 22:09:00,66.1,62.4,30.06,NW,318,0.0,0.0,88,0.00,,CLR,0.01,VWS V14.00,2013-05-21 02:09:00,
2013-05-20 22:14:00,66.1,63.1,30.06,NW,318,0.0,0.0,90,0.00,,CLR,0.01,VWS V14.00,2013-05-21 02:14:00,
2013-05-20 22:20:00,65.7,63.0,30.06,NW,318,0.0,0.0,91,0.00,,CLR,0.01,VWS V14.00,2013-05-21 02:20:00,
2013-05-20 22:25:00,65.7,63.3,30.06,NW,318,0.0,0.0,92,0.00,,CLR,0.01,VWS V14.00,2013-05-21 02:25:00,
2013-05-20 22:30:00,65.7,63.6,30.06,NW,318,0.0,0.0,93,0.00,,CLR,0.01,VWS V14.00,2013-05-21 02:30:00,
2013-05-20 22:35:00,65.9,63.8,30.06,NW,318,0.0,0.0,93,0.00,,CLR,0.01,VWS V14.00,2013-05-21 02:35:00,
2013-05-20 22:40:00,65.9,63.5,30.06,NW,318,0.0,0.0,92,0.00,,CLR,0.01,VWS V14.00,2013-05-21 02:40:00,
2013-05-20 22:45:00,65.7,63.3,30.06,NW,318,0.0,0.0,92,0.00,,CLR,0.01,VWS V14.00,2013-05-21 02:45:00,
2013-05-20 22:50:00,65.7,63.6,30.06,NW,318,0.0,0.0,93,0.00,,CLR,0.01,VWS V14.00,2013-05-21 02:50:00,
2013-05-20 22:55:00,65.7,64.2,30.06,SW,216,0.0,2.7,95,0.00,,CLR,0.01,VWS V14.00,2013-05-21 02:55:00,
2013-05-20 23:00:00,65.5,64.1,30.06,WSW,241,2.5,2.7,95,0.00,,CLR,0.01,VWS V14.00,2013-05-21 03:00:00,
2013-05-20 23:05:00,65.2,63.7,30.06,WSW,247,0.0,0.0,95,0.00,,CLR,0.01,VWS V14.00,2013-05-21 03:05:00,
2013-05-20 23:11:00,64.8,63.3,30.06,SE,128,2.5,3.2,95,0.00,,CLR,0.01,VWS V14.00,2013-05-21 03:11:00,
2013-05-20 23:16:00,64.8,63.3,30.06,ESE,113,3.4,3.8,95,0.00,,CLR,0.01,VWS V14.00,2013-05-21 03:16:00,
2013-05-20 23:21:00,64.8,63.3,30.06,SE,124,2.5,3.2,95,0.00,,CLR,0.01,VWS V14.00,2013-05-21 03:21:00,
2013-05-20 23:26:00,64.8,63.6,30.06,East,101,0.0,2.7,96,0.00,,CLR,0.01,VWS V14.00,2013-05-21 03:26:00,
2013-05-20 23:31:00,65.0,64.1,30.06,ESE,108,0.0,3.8,97,0.00,,CLR,0.01,VWS V14.00,2013-05-21 03:31:00,
2013-05-20 23:36:00,65.2,64.6,30.06,SE,125,2.5,3.2,98,0.00,,CLR,0.01,VWS V14.00,2013-05-21 03:36:00,
2013-05-20 23:41:00,65.2,64.6,30.06,ESE,117,3.0,4.8,98,0.00,,CLR,0.01,VWS V14.00,2013-05-21 03:41:00,
2013-05-20 23:46:00,65.2,64.6,30.06,SSE,151,3.0,3.8,98,0.00,,CLR,0.01,VWS V14.00,2013-05-21 03:46:00,
2013-05-20 23:51:00,64.8,64.2,30.06,NW,307,3.0,3.8,98,0.00,,CLR,0.01,VWS V14.00,2013-05-21 03:51:00,
2013-05-20 23:56:00,64.0,62.9,30.06,NW,307,0.0,0.0,96,0.00,,CLR,0.01,VWS V14.00,2013-05-21 03:56:00,